createdAt,value
2018-07-03T00:01:05.170Z,41.30
2018-07-03T00:03:34.156Z,40.20
2018-07-03T00:06:02.296Z,40.40
2018-07-03T00:08:30.487Z,40.10
2018-07-03T00:13:26.566Z,40.70
2018-07-03T00:15:54.675Z,40.50
2018-07-03T00:18:22.780Z,40.20
2018-07-03T00:20:50.915Z,41.10
2018-07-03T00:23:19.079Z,41.00
2018-07-03T00:25:47.452Z,41.40
2018-07-03T00:28:15.572Z,42.10
2018-07-03T00:30:43.680Z,41.00
2018-07-03T00:33:11.783Z,41.00
2018-07-03T00:35:39.962Z,41.80
2018-07-03T00:38:08.158Z,41.80
2018-07-03T00:40:36.307Z,42.80
2018-07-03T00:43:04.484Z,42.80
2018-07-03T00:45:32.583Z,42.40
2018-07-03T00:48:00.713Z,42.90
2018-07-03T00:50:28.858Z,42.60
2018-07-03T00:52:56.986Z,43.20
2018-07-03T00:55:25.136Z,42.80
2018-07-03T00:57:53.436Z,42.90
2018-07-03T01:00:30.940Z,43.10
2018-07-03T01:02:59.315Z,42.90
2018-07-03T01:05:27.552Z,43.40
2018-07-03T01:07:55.760Z,43.00
2018-07-03T01:10:23.959Z,43.20
2018-07-03T01:12:52.137Z,42.80
2018-07-03T01:15:20.324Z,43.20
2018-07-03T01:17:49.191Z,43.20
2018-07-03T01:20:17.409Z,42.70
2018-07-03T01:22:45.607Z,43.20
2018-07-03T01:25:13.778Z,43.20
2018-07-03T01:27:42.003Z,43.70
2018-07-03T01:30:10.163Z,44.40
2018-07-03T01:32:38.412Z,44.10
2018-07-03T01:35:06.607Z,43.90
2018-07-03T01:37:34.800Z,44.50
2018-07-03T01:40:03.032Z,44.40
2018-07-03T01:42:31.254Z,44.30
2018-07-03T01:44:59.416Z,44.30
2018-07-03T01:47:27.659Z,44.40
2018-07-03T01:49:55.823Z,44.00
2018-07-03T01:52:23.976Z,44.80
2018-07-03T01:54:52.164Z,45.40
2018-07-03T01:57:20.998Z,44.80
2018-07-03T01:59:49.175Z,44.60
2018-07-03T02:02:17.468Z,44.80
2018-07-03T02:04:45.644Z,44.80
2018-07-03T02:07:13.804Z,44.70
2018-07-03T02:09:41.967Z,44.50
2018-07-03T02:12:10.143Z,45.00
2018-07-03T02:14:38.305Z,44.90
2018-07-03T02:17:06.899Z,45.20
2018-07-03T02:19:35.066Z,45.40
2018-07-03T02:22:03.215Z,45.20
2018-07-03T02:24:34.228Z,45.10
2018-07-03T02:29:31.048Z,45.20
2018-07-03T02:31:59.204Z,45.20
2018-07-03T02:34:27.458Z,45.60
2018-07-03T02:36:55.643Z,45.60
2018-07-03T02:39:23.835Z,45.20
2018-07-03T02:41:51.999Z,45.10
2018-07-03T02:44:20.332Z,45.30
2018-07-03T02:46:48.561Z,45.10
2018-07-03T02:49:16.782Z,45.90
2018-07-03T02:51:44.962Z,46.00
2018-07-03T02:54:13.151Z,46.00
2018-07-03T02:56:41.320Z,46.30
2018-07-03T02:59:09.498Z,46.70
2018-07-03T03:01:37.647Z,46.60
2018-07-03T03:04:05.831Z,46.40
2018-07-03T03:06:34.595Z,46.90
2018-07-03T03:09:02.999Z,47.20
2018-07-03T03:11:31.166Z,47.20
2018-07-03T03:13:59.335Z,47.50
2018-07-03T03:16:27.636Z,47.30
2018-07-03T03:18:55.811Z,47.60
2018-07-03T03:21:23.959Z,47.80
2018-07-03T03:23:52.115Z,47.80
2018-07-03T03:26:20.256Z,47.60
2018-07-03T03:28:48.535Z,47.50
2018-07-03T03:31:16.714Z,48.10
2018-07-03T03:33:44.954Z,47.70
2018-07-03T03:36:13.102Z,47.90
2018-07-03T03:38:41.272Z,48.60
2018-07-03T03:41:09.527Z,48.40
2018-07-03T03:43:37.688Z,48.20
2018-07-03T03:46:05.844Z,48.20
2018-07-03T03:48:34.695Z,48.10
2018-07-03T03:51:02.815Z,48.20
2018-07-03T03:53:30.958Z,48.50
2018-07-03T03:55:59.129Z,48.70
2018-07-03T03:58:27.244Z,48.70
2018-07-03T04:00:55.409Z,49.10
2018-07-03T04:03:23.527Z,49.00
2018-07-03T04:05:51.652Z,48.80
2018-07-03T04:08:19.803Z,49.00
2018-07-03T04:10:48.079Z,49.40
2018-07-03T04:13:16.182Z,49.40
2018-07-03T04:15:44.361Z,49.40
2018-07-03T04:18:12.464Z,49.20
2018-07-03T04:20:40.612Z,49.70
2018-07-03T04:23:08.987Z,49.50
2018-07-03T04:25:37.107Z,49.70
2018-07-03T04:28:05.247Z,49.50
2018-07-03T04:30:33.370Z,49.50
2018-07-03T04:33:01.481Z,49.40
2018-07-03T04:35:29.793Z,49.70
2018-07-03T04:37:57.910Z,49.90
2018-07-03T04:40:26.058Z,50.00
2018-07-03T04:42:54.203Z,49.80
2018-07-03T04:45:22.353Z,49.60
2018-07-03T04:47:50.472Z,49.70
2018-07-03T04:50:18.661Z,49.80
2018-07-03T04:52:46.768Z,49.60
2018-07-03T04:55:14.888Z,49.30
2018-07-03T04:57:43.055Z,49.90
2018-07-03T05:00:11.172Z,49.10
2018-07-03T05:02:39.334Z,49.10
2018-07-03T05:05:07.460Z,47.80
2018-07-03T05:07:35.700Z,47.40
2018-07-03T05:10:03.990Z,47.50
2018-07-03T05:12:32.319Z,46.90
2018-07-03T05:15:00.755Z,45.80
2018-07-03T05:17:29.079Z,46.90
2018-07-03T05:19:57.190Z,47.20
2018-07-03T05:22:25.916Z,46.10
2018-07-03T05:24:54.198Z,45.80
2018-07-03T05:27:22.323Z,46.60
2018-07-03T05:29:50.531Z,46.60
2018-07-03T05:32:18.648Z,45.80
2018-07-03T05:34:46.796Z,45.00
2018-07-03T05:37:14.964Z,44.90
2018-07-03T05:39:43.032Z,44.90
2018-07-03T05:42:11.147Z,45.40
2018-07-03T05:44:39.300Z,46.20
2018-07-03T05:47:07.541Z,46.80
2018-07-03T05:49:35.692Z,46.80
2018-07-03T05:52:03.807Z,45.50
2018-07-03T05:54:31.954Z,46.80
2018-07-03T05:57:00.083Z,47.10
2018-07-03T05:59:28.207Z,46.60
2018-07-03T06:01:56.311Z,45.40
2018-07-03T06:04:24.488Z,45.00
2018-07-03T06:06:52.668Z,45.30
2018-07-03T06:09:20.815Z,45.10
2018-07-03T06:11:49.031Z,45.40
2018-07-03T06:14:17.196Z,45.00
2018-07-03T06:16:45.304Z,44.60
2018-07-03T06:19:13.400Z,45.10
2018-07-03T06:21:41.509Z,44.30
2018-07-03T06:24:09.657Z,44.40
2018-07-03T06:26:37.755Z,45.30
2018-07-03T06:29:05.940Z,43.90
2018-07-03T06:31:34.953Z,44.10
2018-07-03T06:34:03.072Z,44.20
2018-07-03T06:36:32.160Z,43.90
2018-07-03T06:39:00.275Z,43.50
2018-07-03T06:41:28.499Z,43.20
2018-07-03T06:43:56.595Z,44.00
2018-07-03T06:46:24.736Z,42.40
2018-07-03T06:48:53.036Z,38.60
2018-07-03T06:51:20.999Z,35.00
2018-07-03T06:53:49.407Z,32.00
2018-07-03T06:56:17.537Z,29.80
2018-07-03T06:58:45.648Z,28.10
2018-07-03T07:01:13.781Z,26.80
2018-07-03T07:03:41.883Z,25.80
2018-07-03T07:06:10.009Z,24.90
2018-07-03T07:08:38.178Z,23.80
2018-07-03T07:11:06.281Z,23.40
2018-07-03T07:13:35.033Z,23.00
2018-07-03T07:16:03.143Z,21.80
2018-07-03T07:18:31.323Z,21.60
2018-07-03T07:20:59.436Z,20.90
2018-07-03T07:23:27.575Z,20.90
2018-07-03T07:25:55.729Z,20.60
2018-07-03T07:28:23.861Z,20.50
2018-07-03T07:30:51.989Z,20.00
2018-07-03T07:33:20.112Z,19.80
2018-07-03T07:35:48.282Z,19.60
2018-07-03T07:40:44.232Z,19.30
2018-07-03T07:43:12.360Z,18.90
2018-07-03T07:45:40.473Z,18.70
2018-07-03T07:48:08.575Z,18.40
2018-07-03T07:50:36.704Z,18.10
2018-07-03T07:53:04.939Z,17.80
2018-07-03T07:55:33.096Z,18.10
2018-07-03T07:58:01.221Z,17.20
2018-07-03T08:00:29.480Z,17.60
2018-07-03T08:02:57.596Z,17.20
2018-07-03T08:05:25.779Z,17.60
2018-07-03T08:07:53.913Z,17.50
2018-07-03T08:10:22.056Z,17.80
2018-07-03T08:12:50.177Z,17.60
2018-07-03T08:15:18.314Z,18.00
2018-07-03T08:17:46.455Z,18.10
2018-07-03T08:20:14.576Z,17.60
2018-07-03T08:22:43.220Z,18.80
2018-07-03T08:25:11.536Z,19.60
2018-07-03T08:27:39.649Z,20.40
2018-07-03T08:30:08.215Z,21.10
2018-07-03T08:32:37.636Z,21.80
2018-07-03T08:35:05.827Z,21.90
2018-07-03T08:37:33.923Z,21.70
2018-07-03T08:40:02.060Z,22.30
2018-07-03T08:42:30.968Z,23.10
2018-07-03T08:44:59.096Z,23.70
2018-07-03T08:47:27.199Z,24.80
2018-07-03T08:49:55.364Z,24.60
2018-07-03T08:52:23.528Z,24.00
2018-07-03T08:54:51.805Z,24.30
2018-07-03T08:57:19.965Z,23.70
2018-07-03T08:59:48.100Z,23.80
2018-07-03T09:02:16.235Z,23.80
2018-07-03T09:04:44.389Z,23.80
2018-07-03T09:07:12.555Z,23.40
2018-07-03T09:09:40.783Z,22.80
2018-07-03T09:12:08.947Z,23.10
2018-07-03T09:14:37.088Z,22.90
2018-07-03T09:17:10.680Z,23.70
2018-07-03T09:19:38.845Z,22.90
2018-07-03T09:22:07.103Z,22.60
2018-07-03T09:24:35.331Z,22.90
2018-07-03T09:27:03.491Z,22.50
2018-07-03T09:29:32.661Z,23.10
2018-07-03T09:32:00.927Z,21.70
2018-07-03T09:34:29.071Z,22.90
2018-07-03T09:36:57.223Z,22.10
2018-07-03T09:39:25.379Z,22.40
2018-07-03T09:41:53.573Z,22.10
2018-07-03T09:44:21.807Z,21.60
2018-07-03T09:46:50.015Z,22.70
2018-07-03T09:49:18.176Z,21.20
2018-07-03T09:51:46.300Z,21.10
2018-07-03T09:54:14.403Z,21.20
2018-07-03T09:56:42.532Z,22.70
2018-07-03T09:59:10.947Z,21.30
2018-07-03T10:01:39.048Z,21.10
2018-07-03T10:04:07.177Z,21.70
2018-07-03T10:06:35.381Z,21.20
2018-07-03T10:09:03.951Z,21.10
2018-07-03T10:11:32.188Z,22.10
2018-07-03T10:14:00.324Z,22.00
2018-07-03T10:16:28.501Z,21.80
2018-07-03T10:18:56.636Z,21.50
2018-07-03T10:21:24.752Z,21.70
2018-07-03T10:23:52.987Z,21.60
2018-07-03T10:26:21.096Z,20.70
2018-07-03T10:28:49.209Z,21.30
2018-07-03T10:31:17.326Z,21.90
2018-07-03T10:33:45.463Z,20.60
2018-07-03T10:36:13.729Z,20.80
2018-07-03T10:38:41.842Z,20.50
2018-07-03T10:41:09.993Z,21.10
2018-07-03T10:43:38.089Z,20.90
2018-07-03T10:46:06.264Z,21.80
2018-07-03T10:51:03.248Z,20.40
2018-07-03T10:53:31.446Z,21.40
2018-07-03T10:55:59.624Z,19.90
2018-07-03T10:58:27.762Z,20.80
2018-07-03T11:00:55.914Z,21.40
2018-07-03T11:03:24.080Z,20.90
2018-07-03T11:05:52.280Z,20.80
2018-07-03T11:08:20.419Z,20.70
2018-07-03T11:10:48.571Z,20.70
2018-07-03T11:13:16.714Z,20.40
2018-07-03T11:15:44.864Z,20.40
2018-07-03T11:18:13.260Z,19.90
2018-07-03T11:20:41.442Z,19.20
2018-07-03T11:23:09.603Z,19.50
2018-07-03T11:25:37.772Z,19.20
2018-07-03T11:28:06.564Z,20.40
2018-07-03T11:30:35.641Z,20.60
2018-07-03T11:33:03.824Z,21.30
2018-07-03T11:35:32.043Z,20.00
2018-07-03T11:38:00.201Z,19.10
2018-07-03T11:40:28.375Z,20.10
2018-07-03T11:42:56.635Z,20.40
2018-07-03T11:45:24.752Z,20.90
2018-07-03T11:47:53.011Z,21.50
2018-07-03T11:50:21.991Z,20.20
2018-07-03T11:52:50.104Z,19.10
2018-07-03T11:55:18.226Z,19.80
2018-07-03T11:57:46.797Z,20.00
2018-07-03T12:00:15.172Z,19.50
2018-07-03T12:02:43.293Z,19.30
2018-07-03T12:05:11.396Z,19.10
2018-07-03T12:07:39.549Z,20.00
2018-07-03T12:10:07.712Z,19.50
2018-07-03T12:12:35.836Z,22.30
2018-07-03T12:15:03.983Z,22.20
2018-07-03T12:17:32.140Z,20.30
2018-07-03T12:20:00.273Z,20.40
2018-07-03T12:22:28.962Z,19.10
2018-07-03T12:24:57.087Z,19.50
2018-07-03T12:27:25.267Z,20.80
2018-07-03T12:29:53.442Z,20.20
2018-07-03T12:32:21.551Z,19.60
2018-07-03T12:37:17.624Z,20.10
2018-07-03T12:39:45.744Z,20.60
2018-07-03T12:42:13.974Z,19.60
2018-07-03T12:44:42.092Z,19.70
2018-07-03T12:47:10.233Z,20.10
2018-07-03T12:49:38.329Z,19.10
2018-07-03T12:52:06.491Z,20.30
2018-07-03T12:54:34.703Z,19.10
2018-07-03T12:57:02.857Z,19.40
2018-07-03T12:59:30.968Z,19.60
2018-07-03T13:01:59.256Z,21.10
2018-07-03T13:04:27.412Z,19.20
2018-07-03T13:06:55.539Z,19.20
2018-07-03T13:09:23.639Z,20.50
2018-07-03T13:11:51.756Z,19.40
2018-07-03T13:14:20.076Z,20.80
2018-07-03T13:16:48.191Z,21.10
2018-07-03T13:19:16.329Z,21.40
2018-07-03T13:21:44.444Z,19.80
2018-07-03T13:24:12.736Z,19.50
2018-07-03T13:26:40.829Z,20.80
2018-07-03T13:29:08.932Z,20.40
2018-07-03T13:31:37.128Z,20.60
2018-07-03T13:34:05.267Z,19.70
2018-07-03T13:36:33.521Z,20.00
2018-07-03T13:39:01.628Z,20.50
2018-07-03T13:41:29.730Z,20.00
2018-07-03T13:43:57.834Z,21.10
2018-07-03T13:46:26.027Z,19.70
2018-07-03T13:48:54.759Z,19.70
2018-07-03T13:51:22.900Z,21.00
2018-07-03T13:53:51.066Z,21.40
2018-07-03T13:56:19.212Z,21.60
2018-07-03T13:58:47.411Z,21.70
2018-07-03T14:01:15.619Z,22.40
2018-07-03T14:03:43.799Z,20.50
2018-07-03T14:06:11.943Z,21.60
2018-07-03T14:08:40.099Z,21.10
2018-07-03T14:11:08.723Z,19.50
2018-07-03T14:13:36.854Z,20.00
2018-07-03T14:16:05.023Z,20.20
2018-07-03T14:18:33.219Z,20.50
2018-07-03T14:21:01.369Z,21.10
2018-07-03T14:23:30.412Z,20.60
2018-07-03T14:25:58.803Z,21.00
2018-07-03T14:28:27.011Z,20.90
2018-07-03T14:30:55.335Z,20.30
2018-07-03T14:33:23.507Z,21.20
2018-07-03T14:35:51.658Z,20.40
2018-07-03T14:38:20.635Z,20.10
2018-07-03T14:40:48.872Z,20.70
2018-07-03T14:43:17.047Z,21.00
2018-07-03T14:45:46.197Z,20.40
2018-07-03T14:48:14.520Z,21.20
2018-07-03T14:50:42.739Z,20.80
2018-07-03T14:53:10.809Z,20.40
2018-07-03T14:55:38.899Z,21.20
2018-07-03T14:58:06.988Z,21.40
2018-07-03T15:00:36.022Z,21.60
2018-07-03T15:03:04.159Z,20.70
2018-07-03T15:05:32.295Z,21.30
2018-07-03T15:08:00.520Z,20.70
2018-07-03T15:10:28.656Z,20.00
2018-07-03T15:12:57.076Z,19.90
2018-07-03T15:15:25.954Z,20.60
2018-07-03T15:17:54.224Z,20.30
2018-07-03T15:20:22.524Z,20.60
2018-07-03T15:22:50.567Z,19.90
2018-07-03T15:25:18.683Z,19.80
2018-07-03T15:27:46.812Z,21.60
2018-07-03T15:30:17.162Z,20.80
2018-07-03T15:32:45.288Z,21.40
2018-07-03T15:35:13.671Z,21.20
2018-07-03T15:37:41.775Z,20.80
2018-07-03T15:40:10.009Z,21.00
2018-07-03T15:42:38.165Z,19.70
2018-07-03T15:45:10.617Z,20.50
2018-07-03T15:47:38.739Z,20.50
2018-07-03T15:50:07.984Z,21.10
2018-07-03T15:52:36.552Z,20.00
2018-07-03T15:55:05.023Z,20.50
2018-07-03T15:57:33.199Z,21.00
2018-07-03T16:00:01.332Z,20.40
2018-07-03T16:02:29.492Z,21.20
2018-07-03T16:05:12.695Z,21.30
2018-07-03T16:07:57.191Z,20.50
2018-07-03T16:10:26.668Z,21.40
2018-07-03T16:12:55.183Z,21.00
2018-07-03T16:15:23.384Z,20.70
2018-07-03T16:17:51.589Z,21.20
2018-07-03T16:20:25.083Z,20.50
2018-07-03T16:22:53.280Z,19.80
2018-07-03T16:25:21.512Z,21.20
2018-07-03T16:27:49.716Z,21.50
2018-07-03T16:30:17.895Z,21.70
2018-07-03T16:32:46.048Z,21.90
2018-07-03T16:35:14.302Z,21.60
2018-07-03T16:37:42.427Z,21.80
2018-07-03T16:40:10.563Z,20.50
2018-07-03T16:42:38.743Z,20.70
2018-07-03T16:45:06.903Z,22.00
2018-07-03T16:47:35.158Z,21.60
2018-07-03T16:50:03.276Z,22.00
2018-07-03T16:52:31.418Z,22.20
2018-07-03T16:54:59.532Z,22.30
2018-07-03T16:57:27.676Z,21.70
2018-07-03T16:59:55.876Z,21.30
2018-07-03T17:02:23.987Z,21.80
2018-07-03T17:07:20.022Z,22.40
2018-07-03T17:09:48.159Z,22.60
2018-07-03T17:12:16.307Z,22.10
2018-07-03T17:14:44.422Z,22.10
2018-07-03T17:17:12.540Z,22.40
2018-07-03T17:19:41.770Z,22.40
2018-07-03T17:24:37.735Z,22.60
2018-07-03T17:27:06.325Z,22.60
2018-07-03T17:29:35.058Z,23.10
2018-07-03T17:32:03.383Z,23.40
2018-07-03T17:34:31.552Z,22.30
2018-07-03T17:36:59.697Z,22.60
2018-07-03T17:39:39.309Z,22.70
2018-07-03T17:42:19.023Z,23.30
2018-07-03T17:45:56.493Z,23.30
2018-07-03T17:48:24.630Z,22.70
2018-07-03T17:50:52.780Z,23.00
2018-07-03T17:53:20.928Z,23.10
2018-07-03T17:55:49.096Z,24.00
2018-07-03T17:58:17.333Z,23.00
2018-07-03T18:00:45.525Z,24.20
2018-07-03T18:03:13.665Z,24.20
2018-07-03T18:05:41.869Z,24.10
2018-07-03T18:08:10.027Z,24.30
2018-07-03T18:10:38.198Z,23.80
2018-07-03T18:13:06.360Z,24.20
2018-07-03T18:15:34.503Z,23.50
2018-07-03T18:18:02.675Z,24.00
2018-07-03T18:20:30.885Z,24.00
2018-07-03T18:22:59.083Z,24.30
2018-07-03T18:25:27.266Z,24.90
2018-07-03T18:27:55.506Z,25.10
2018-07-03T18:30:23.706Z,23.90
2018-07-03T18:32:51.910Z,25.70
2018-07-03T18:37:48.043Z,24.80
2018-07-03T18:40:16.308Z,27.50
2018-07-03T18:42:44.444Z,26.10
2018-07-03T18:45:12.612Z,25.40
2018-07-03T18:47:40.767Z,28.00
2018-07-03T18:50:08.911Z,29.30
2018-07-03T18:52:37.025Z,29.70
2018-07-03T18:55:05.174Z,30.10
2018-07-03T18:57:33.269Z,33.60
2018-07-03T19:00:01.418Z,34.50
2018-07-03T19:02:29.507Z,34.30
2018-07-03T19:04:57.653Z,34.30
2018-07-03T19:07:25.795Z,34.50
2018-07-03T19:09:53.920Z,34.20
2018-07-03T19:12:22.017Z,34.20
2018-07-03T19:14:50.120Z,35.40
2018-07-03T19:17:18.239Z,35.30
2018-07-03T19:19:46.344Z,34.80
2018-07-03T19:22:14.456Z,34.70
2018-07-03T19:24:42.559Z,34.90
2018-07-03T19:27:10.643Z,34.00
2018-07-03T19:29:38.747Z,34.90
2018-07-03T19:32:06.844Z,34.80
2018-07-03T19:34:34.992Z,33.80
2018-07-03T19:37:03.158Z,33.80
2018-07-03T19:39:31.259Z,33.00
2018-07-03T19:41:59.420Z,33.80
2018-07-03T19:44:27.541Z,35.70
2018-07-03T19:46:55.806Z,34.70
2018-07-03T19:49:23.919Z,30.80
2018-07-03T19:51:52.080Z,33.60
2018-07-03T19:54:20.525Z,32.10
2018-07-03T19:56:48.662Z,34.50
2018-07-03T19:59:16.931Z,36.40
2018-07-03T20:01:45.071Z,37.10
2018-07-03T20:04:13.240Z,38.30
2018-07-03T20:06:41.406Z,38.90
2018-07-03T20:09:11.267Z,39.70
2018-07-03T20:11:39.417Z,38.40
2018-07-03T20:14:07.819Z,39.00
2018-07-03T20:16:37.240Z,38.70
2018-07-03T20:19:05.505Z,38.70
2018-07-03T20:21:33.638Z,38.30
2018-07-03T20:24:01.787Z,37.30
2018-07-03T20:26:29.976Z,36.10
2018-07-03T20:28:58.269Z,36.60
2018-07-03T20:31:26.432Z,35.30
2018-07-03T20:33:54.579Z,36.60
2018-07-03T20:36:22.723Z,38.50
2018-07-03T20:38:50.862Z,35.30
2018-07-03T20:41:19.027Z,36.80
2018-07-03T20:43:47.270Z,39.50
2018-07-03T20:46:15.412Z,40.00
2018-07-03T20:48:43.559Z,36.40
2018-07-03T20:51:11.678Z,36.10
2018-07-03T20:56:08.304Z,36.20
2018-07-03T20:58:36.914Z,36.00
2018-07-03T21:01:05.056Z,36.20
2018-07-03T21:03:33.168Z,36.90
2018-07-03T21:06:01.320Z,39.20
2018-07-03T21:08:29.385Z,37.10
2018-07-03T21:10:57.590Z,39.70
2018-07-03T21:13:25.703Z,39.80
2018-07-03T21:15:53.813Z,40.90
2018-07-03T21:18:21.917Z,38.50
2018-07-03T21:20:50.023Z,38.40
2018-07-03T21:23:18.143Z,38.30
2018-07-03T21:28:14.778Z,39.30
2018-07-03T21:30:42.928Z,37.60
2018-07-03T21:33:11.055Z,38.50
2018-07-03T21:35:39.191Z,36.90
2018-07-03T21:38:07.348Z,38.10
2018-07-03T21:40:35.448Z,37.50
2018-07-03T21:43:03.582Z,36.70
2018-07-03T21:45:31.708Z,38.10
2018-07-03T21:47:59.943Z,37.70
2018-07-03T21:50:28.056Z,37.80
2018-07-03T21:52:56.164Z,39.60
2018-07-03T21:55:24.275Z,38.00
2018-07-03T21:57:52.420Z,38.70
2018-07-03T22:00:30.257Z,38.80
2018-07-03T22:02:58.416Z,39.00
2018-07-03T22:05:26.514Z,39.60
2018-07-03T22:07:54.704Z,39.50
2018-07-03T22:10:22.855Z,40.00
2018-07-03T22:12:51.285Z,40.90
2018-07-03T22:15:19.532Z,40.90
2018-07-03T22:17:47.709Z,41.00
2018-07-03T22:20:15.852Z,42.00
2018-07-03T22:22:43.983Z,41.50
2018-07-03T22:25:12.104Z,41.40
2018-07-03T22:27:40.233Z,42.00
2018-07-03T22:30:08.355Z,42.40
2018-07-03T22:32:37.134Z,42.60
2018-07-03T22:35:05.673Z,43.50
2018-07-03T22:37:33.796Z,43.60
2018-07-03T22:40:01.923Z,43.40
2018-07-03T22:42:30.671Z,43.40
2018-07-03T22:44:58.893Z,43.50
2018-07-03T22:47:27.008Z,44.00
2018-07-03T22:49:55.200Z,44.10
2018-07-03T22:52:23.371Z,44.30
2018-07-03T22:54:51.527Z,44.10
2018-07-03T22:57:19.821Z,45.00
2018-07-03T22:59:47.975Z,46.00
2018-07-03T23:02:16.142Z,45.40
2018-07-03T23:04:44.291Z,45.50
2018-07-03T23:07:13.253Z,45.40
2018-07-03T23:09:41.395Z,46.80
2018-07-03T23:12:13.796Z,46.00
2018-07-03T23:14:41.952Z,46.60
2018-07-03T23:17:10.104Z,46.70
2018-07-03T23:19:38.268Z,45.90
2018-07-03T23:22:06.448Z,45.90
2018-07-03T23:24:34.599Z,45.80
2018-07-03T23:27:02.761Z,45.90
2018-07-03T23:29:30.935Z,46.20
2018-07-03T23:31:59.103Z,47.00
2018-07-03T23:34:27.308Z,47.40
2018-07-03T23:36:55.467Z,47.20
2018-07-03T23:39:38.392Z,46.90
2018-07-03T23:44:34.509Z,47.40
2018-07-03T23:47:14.119Z,47.30
2018-07-03T23:49:53.800Z,47.20
2018-07-03T23:52:33.312Z,47.10
2018-07-03T23:55:12.970Z,47.30
2018-07-03T23:57:52.607Z,48.50
